Spring Sky — 9V3060 — position and weather

sailwx.info

Track history (hours):
 
Tides and Currents Weather Stations Pressure Air Temp Water Temp Dewpoint Dewpoint Depression Visibility Wind Speed Wind Dir Waves Ship Positions

Spring Sky

Last reported at 2017-Sep-19 04:49 UTC. Time now 2017-Sep-19 22:40 UTC.
Position N 35°57' E 015°42'.

Length 199 m; draft 12 m.

Type: Cargo ship. MMSI: 565775000.

Date/timePositionNaut miles runAvg speedWind from/ knotsBaromVisibWave heightAir tempDewpointWater temp
2017-Sep-19 04:49N 35°57' E 015°42'1112.9
2017-Sep-19 03:58N 36°01' E 015°30'813.9
2017-Sep-19 03:26N 36°03' E 015°21'3112.8
2017-Sep-19 01:01N 36°13' E 014°45'012.6
2017-Sep-19 01:00N 36°14' E 014°45'612.6
2017-Sep-19 00:30N 36°16' E 014°38'612.6
2017-Sep-19 00:00N 36°18' E 014°30'612.6
2017-Sep-18 23:30N 36°20' E 014°23'612.3
2017-Sep-18 23:00N 36°22' E 014°16'612.2
2017-Sep-18 22:30N 36°24' E 014°08'612.2
2017-Sep-18 22:00N 36°26' E 014°01'612.3
2017-Sep-18 21:30N 36°28' E 013°54'612.4
2017-Sep-18 21:00N 36°30' E 013°47'612.3
2017-Sep-18 20:30N 36°32' E 013°39'612.1
2017-Sep-18 20:00N 36°34' E 013°32'612.0
2017-Sep-18 19:29N 36°36' E 013°25'611.8
2017-Sep-18 19:00N 36°38' E 013°18'611.7
2017-Sep-18 18:30N 36°40' E 013°12'611.9
2017-Sep-18 18:00N 36°42' E 013°05'611.8
2017-Sep-18 17:30N 36°44' E 012°58'611.8
2017-Sep-18 17:00N 36°46' E 012°51'711.8
2017-Sep-18 16:24N 36°48' E 012°42'511.8
2017-Sep-18 16:00N 36°50' E 012°37'612.0
2017-Sep-18 15:30N 36°52' E 012°30'612.2
2017-Sep-18 15:00N 36°54' E 012°23'2612.2
2017-Sep-18 12:50N 37°04' E 011°52'612.1
2017-Sep-18 12:21N 37°07' E 011°45'612.1
2017-Sep-18 11:53N 37°09' E 011°39'  
2017-Sep-15 15:45N 36°02' W 005°12'414.4
2017-Sep-15 15:31N 36°03' W 005°17'611.0
2017-Sep-15 15:00N 36°06' W 005°23'1 1.3
2017-Sep-15 13:54N 36°07' W 005°22'0 0.0
2017-Sep-15 13:30N 36°07' W 005°22'0 0.0
2017-Sep-15 12:54N 36°07' W 005°22'0 0.0
2017-Sep-15 12:27N 36°07' W 005°22'0 0.1
2017-Sep-15 11:57N 36°07' W 005°22'0 0.1
2017-Sep-15 09:51N 36°07' W 005°22'0 0.1
2017-Sep-15 08:54N 36°07' W 005°22'0 0.0
2017-Sep-15 05:00N 36°07' W 005°22'0 0.4
2017-Sep-15 04:27N 36°07' W 005°22'2 4.6
2017-Sep-15 04:00N 36°05' W 005°21'4 7.5
2017-Sep-15 03:30N 36°05' W 005°17'5 9.6
2017-Sep-15 03:00N 36°07' W 005°11'2 3.7
2017-Sep-15 02:26N 36°07' W 005°08'0 0.6
2017-Sep-15 01:59N 36°06' W 005°08'0 0.6
2017-Sep-15 01:20N 36°06' W 005°09'0 0.5
2017-Sep-15 00:59N 36°06' W 005°09'0 0.5
2017-Sep-15 00:29N 36°06' W 005°09'1 0.4
2017-Sep-14 21:56N 36°06' W 005°10'0 0.7
2017-Sep-14 21:29N 36°06' W 005°11'1 0.9
2017-Sep-14 20:53N 36°06' W 005°11'0 1.1
2017-Sep-14 20:29N 36°06' W 005°12'0 0.4
2017-Sep-14 19:56N 36°06' W 005°12'1 2.6
2017-Sep-14 19:30N 36°06' W 005°10'1 1.2
2017-Sep-14 18:50N 36°06' W 005°09'1 1.6
2017-Sep-14 18:20N 36°06' W 005°10'1 1.5
2017-Sep-14 17:56N 36°06' W 005°11'1 1.5
2017-Sep-14 17:20N 36°06' W 005°12'4 6.0
2017-Sep-14 16:45N 36°04' W 005°16'312.4
2017-Sep-14 16:30N 36°02' W 005°19'611.4
2017-Sep-14 16:00N 35°59' W 005°24'611.7
2017-Sep-14 15:30N 35°57' W 005°31'2712.1
2017-Sep-14 13:14N 35°54' W 006°05'4912.5
2017-Sep-14 09:20N 35°56' W 007°05'411.5
2017-Sep-14 08:59N 35°56' W 007°10'711.7
2017-Sep-14 08:23N 35°56' W 007°19'512.0
2017-Sep-14 08:00N 35°56' W 007°24'611.6
2017-Sep-14 07:30N 35°56' W 007°32'611.6
2017-Sep-14 07:00N 35°56' W 007°39'611.7
2017-Sep-14 06:29N 35°56' W 007°46'711.9
2017-Sep-14 05:52N 35°57' W 007°55'411.8
2017-Sep-14 05:30N 35°57' W 008°00'611.6
2017-Sep-14 05:00N 35°57' W 008°08'611.8
2017-Sep-14 04:30N 35°57' W 008°15'912.2
2017-Sep-14 03:46N 35°58' W 008°26'412.5
2017-Sep-14 03:24N 35°58' W 008°32'512.4
2017-Sep-14 03:00N 35°58' W 008°38'612.4
2017-Sep-14 02:31N 35°58' W 008°45'1112.5
2017-Sep-14 01:39N 35°58' W 008°58'412.5
2017-Sep-14 01:22N 35°59' W 009°03'611.9
2017-Sep-14 00:53N 35°58' W 009°10'2511.5
2017-Sep-13 22:43N 35°59' W 009°41'1510.9
2017-Sep-13 21:22N 36°00' W 009°59'1610.9
2017-Sep-13 19:55N 36°02' W 010°18'610.8
2017-Sep-13 19:25N 36°02' W 010°25'510.8
2017-Sep-13 18:58N 36°03' W 010°31'610.6
2017-Sep-13 18:24N 36°04' W 010°38'410.7
2017-Sep-13 18:00N 36°04' W 010°44'510.8
2017-Sep-13 17:30N 36°05' W 010°50'610.9
2017-Sep-13 16:59N 36°06' W 010°57'510.9
2017-Sep-13 16:30N 36°06' W 011°04'610.5
2017-Sep-13 15:57N 36°07' W 011°11'510.4
2017-Sep-13 15:29N 36°08' W 011°17'3011.3
2017-Sep-13 12:50N 36°11' W 011°54'411.0
2017-Sep-13 12:30N 36°12' W 011°58'510.6
2017-Sep-13 12:00N 36°12' W 012°05'510.6
2017-Sep-13 11:30N 36°13' W 012°11'2910.9
2017-Sep-13 08:49N 36°17' W 012°47'52211.4
2017-Sep-11 10:59N 37°22' W 023°34'511.2
2017-Sep-11 10:31N 37°23' W 023°40'611.3
2017-Sep-11 10:00N 37°24' W 023°48'611.0
2017-Sep-11 09:30N 37°25' W 023°54'510.9
2017-Sep-11 09:01N 37°25' W 024°01'611.3
2017-Sep-11 08:30N 37°26' W 024°08'611.6
2017-Sep-11 08:00N 37°27' W 024°15'611.4
2017-Sep-11 07:31N 37°27' W 024°23'611.9
2017-Sep-11 07:00N 37°28' W 024°30'611.8
2017-Sep-11 06:30N 37°29' W 024°38'612.2
2017-Sep-11 06:00N 37°29' W 024°45'611.7
2017-Sep-11 05:30N 37°30' W 024°52'611.5
2017-Sep-11 05:01N 37°29' W 024°60'611.8
2017-Sep-11 04:30N 37°29' W 025°07'611.8
2017-Sep-11 04:01N 37°28' W 025°14'611.1
2017-Sep-11 03:30N 37°26' W 025°21'611.7
2017-Sep-11 03:01N 37°26' W 025°28'612.1
2017-Sep-11 02:30N 37°26' W 025°36'612.0
2017-Sep-11 02:01N 37°25' W 025°43'611.9
2017-Sep-11 01:31N 37°24' W 025°51'611.8
2017-Sep-11 01:00N 37°24' W 025°58'611.6
2017-Sep-11 00:30N 37°23' W 026°06'611.7
2017-Sep-11 00:00N 37°22' W 026°13'611.0
2017-Sep-10 23:30N 37°21' W 026°20'510.9
2017-Sep-10 23:00N 37°21' W 026°27'611.0
2017-Sep-10 22:30N 37°20' W 026°33'611.7
2017-Sep-10 22:00N 37°19' W 026°41'611.8
2017-Sep-10 21:30N 37°19' W 026°48'611.5
2017-Sep-10 21:00N 37°18' W 026°55'511.0
2017-Sep-10 20:31N 37°17' W 027°02'611.4
2017-Sep-10 20:00N 37°16' W 027°09'1422.0
2017-Sep-10 19:23N 37°15' W 027°26'15 8.3
2017-Sep-10 17:31N 37°13' W 027°46'017.7
2017-Sep-10 17:30N 37°13' W 027°46'1012.7
2017-Sep-10 16:45N 37°12' W 027°58'313.2
2017-Sep-10 16:30N 37°11' W 028°02'712.5
2017-Sep-10 15:57N 37°11' W 028°10'1511.7
2017-Sep-10 14:41N 37°09' W 028°29'812.0
2017-Sep-10 14:00N 37°08' W 028°39'611.7
2017-Sep-10 13:30N 37°07' W 028°46'611.8
2017-Sep-10 13:01N 37°07' W 028°53'611.7
2017-Sep-10 12:30N 37°06' W 029°01'611.6
2017-Sep-10 12:00N 37°05' W 029°08'611.6
2017-Sep-10 11:30N 37°04' W 029°15'911.4
2017-Sep-10 10:44N 37°03' W 029°26'1111.7
2017-Sep-10 09:46N 37°02' W 029°40'311.4
2017-Sep-10 09:29N 37°02' W 029°44'1411.7
2017-Sep-10 08:15N 36°60' W 030°02'2311.8
2017-Sep-10 06:17N 36°56' W 030°31'  
Track history (hours):
 
Tides and Currents Weather Stations Pressure Air Temp Water Temp Dewpoint Dewpoint Depression Visibility Wind Speed Wind Dir Waves Ship Positions

Spring Sky

Last reported at 2017-Sep-19 04:49 UTC. Time now 2017-Sep-19 22:40 UTC.
Position N 35°57' E 015°42'.

Length 199 m; draft 12 m.

Type: Cargo ship. MMSI: 565775000.

Date/timePositionNaut miles runAvg speedWind from/ knotsBaromVisibWave heightAir tempDewpointWater temp
2017-Sep-19 04:49N 35°57' E 015°42'1112.9
2017-Sep-19 03:58N 36°01' E 015°30'813.9
2017-Sep-19 03:26N 36°03' E 015°21'3112.8
2017-Sep-19 01:01N 36°13' E 014°45'012.6
2017-Sep-19 01:00N 36°14' E 014°45'612.6
2017-Sep-19 00:30N 36°16' E 014°38'612.6
2017-Sep-19 00:00N 36°18' E 014°30'612.6
2017-Sep-18 23:30N 36°20' E 014°23'612.3
2017-Sep-18 23:00N 36°22' E 014°16'612.2
2017-Sep-18 22:30N 36°24' E 014°08'612.2
2017-Sep-18 22:00N 36°26' E 014°01'612.3
2017-Sep-18 21:30N 36°28' E 013°54'612.4
2017-Sep-18 21:00N 36°30' E 013°47'612.3
2017-Sep-18 20:30N 36°32' E 013°39'612.1
2017-Sep-18 20:00N 36°34' E 013°32'612.0
2017-Sep-18 19:29N 36°36' E 013°25'611.8
2017-Sep-18 19:00N 36°38' E 013°18'611.7
2017-Sep-18 18:30N 36°40' E 013°12'611.9
2017-Sep-18 18:00N 36°42' E 013°05'611.8
2017-Sep-18 17:30N 36°44' E 012°58'611.8
2017-Sep-18 17:00N 36°46' E 012°51'711.8
2017-Sep-18 16:24N 36°48' E 012°42'511.8
2017-Sep-18 16:00N 36°50' E 012°37'612.0
2017-Sep-18 15:30N 36°52' E 012°30'612.2
2017-Sep-18 15:00N 36°54' E 012°23'2612.2
2017-Sep-18 12:50N 37°04' E 011°52'612.1
2017-Sep-18 12:21N 37°07' E 011°45'612.1
2017-Sep-18 11:53N 37°09' E 011°39'  
2017-Sep-15 15:45N 36°02' W 005°12'414.4
2017-Sep-15 15:31N 36°03' W 005°17'611.0
2017-Sep-15 15:00N 36°06' W 005°23'1 1.3
2017-Sep-15 13:54N 36°07' W 005°22'0 0.0
2017-Sep-15 13:30N 36°07' W 005°22'0 0.0
2017-Sep-15 12:54N 36°07' W 005°22'0 0.0
2017-Sep-15 12:27N 36°07' W 005°22'0 0.1
2017-Sep-15 11:57N 36°07' W 005°22'0 0.1
2017-Sep-15 09:51N 36°07' W 005°22'0 0.1
2017-Sep-15 08:54N 36°07' W 005°22'0 0.0
2017-Sep-15 05:00N 36°07' W 005°22'0 0.4
2017-Sep-15 04:27N 36°07' W 005°22'2 4.6
2017-Sep-15 04:00N 36°05' W 005°21'4 7.5
2017-Sep-15 03:30N 36°05' W 005°17'5 9.6
2017-Sep-15 03:00N 36°07' W 005°11'2 3.7
2017-Sep-15 02:26N 36°07' W 005°08'0 0.6
2017-Sep-15 01:59N 36°06' W 005°08'0 0.6
2017-Sep-15 01:20N 36°06' W 005°09'0 0.5
2017-Sep-15 00:59N 36°06' W 005°09'0 0.5
2017-Sep-15 00:29N 36°06' W 005°09'1 0.4
2017-Sep-14 21:56N 36°06' W 005°10'0 0.7
2017-Sep-14 21:29N 36°06' W 005°11'1 0.9
2017-Sep-14 20:53N 36°06' W 005°11'0 1.1
2017-Sep-14 20:29N 36°06' W 005°12'0 0.4
2017-Sep-14 19:56N 36°06' W 005°12'1 2.6
2017-Sep-14 19:30N 36°06' W 005°10'1 1.2
2017-Sep-14 18:50N 36°06' W 005°09'1 1.6
2017-Sep-14 18:20N 36°06' W 005°10'1 1.5
2017-Sep-14 17:56N 36°06' W 005°11'1 1.5
2017-Sep-14 17:20N 36°06' W 005°12'4 6.0
2017-Sep-14 16:45N 36°04' W 005°16'312.4
2017-Sep-14 16:30N 36°02' W 005°19'611.4
2017-Sep-14 16:00N 35°59' W 005°24'611.7
2017-Sep-14 15:30N 35°57' W 005°31'2712.1
2017-Sep-14 13:14N 35°54' W 006°05'4912.5
2017-Sep-14 09:20N 35°56' W 007°05'411.5
2017-Sep-14 08:59N 35°56' W 007°10'711.7
2017-Sep-14 08:23N 35°56' W 007°19'512.0
2017-Sep-14 08:00N 35°56' W 007°24'611.6
2017-Sep-14 07:30N 35°56' W 007°32'611.6
2017-Sep-14 07:00N 35°56' W 007°39'611.7
2017-Sep-14 06:29N 35°56' W 007°46'711.9
2017-Sep-14 05:52N 35°57' W 007°55'411.8
2017-Sep-14 05:30N 35°57' W 008°00'611.6
2017-Sep-14 05:00N 35°57' W 008°08'611.8
2017-Sep-14 04:30N 35°57' W 008°15'912.2
2017-Sep-14 03:46N 35°58' W 008°26'412.5
2017-Sep-14 03:24N 35°58' W 008°32'512.4
2017-Sep-14 03:00N 35°58' W 008°38'612.4
2017-Sep-14 02:31N 35°58' W 008°45'1112.5
2017-Sep-14 01:39N 35°58' W 008°58'412.5
2017-Sep-14 01:22N 35°59' W 009°03'611.9
2017-Sep-14 00:53N 35°58' W 009°10'2511.5
2017-Sep-13 22:43N 35°59' W 009°41'1510.9
2017-Sep-13 21:22N 36°00' W 009°59'1610.9
2017-Sep-13 19:55N 36°02' W 010°18'610.8
2017-Sep-13 19:25N 36°02' W 010°25'510.8
2017-Sep-13 18:58N 36°03' W 010°31'610.6
2017-Sep-13 18:24N 36°04' W 010°38'410.7
2017-Sep-13 18:00N 36°04' W 010°44'510.8
2017-Sep-13 17:30N 36°05' W 010°50'610.9
2017-Sep-13 16:59N 36°06' W 010°57'510.9
2017-Sep-13 16:30N 36°06' W 011°04'610.5
2017-Sep-13 15:57N 36°07' W 011°11'510.4
2017-Sep-13 15:29N 36°08' W 011°17'3011.3
2017-Sep-13 12:50N 36°11' W 011°54'411.0
2017-Sep-13 12:30N 36°12' W 011°58'510.6
2017-Sep-13 12:00N 36°12' W 012°05'510.6
2017-Sep-13 11:30N 36°13' W 012°11'2910.9
2017-Sep-13 08:49N 36°17' W 012°47'52211.4
2017-Sep-11 10:59N 37°22' W 023°34'511.2
2017-Sep-11 10:31N 37°23' W 023°40'611.3
2017-Sep-11 10:00N 37°24' W 023°48'611.0
2017-Sep-11 09:30N 37°25' W 023°54'510.9
2017-Sep-11 09:01N 37°25' W 024°01'611.3
2017-Sep-11 08:30N 37°26' W 024°08'611.6
2017-Sep-11 08:00N 37°27' W 024°15'611.4
2017-Sep-11 07:31N 37°27' W 024°23'611.9
2017-Sep-11 07:00N 37°28' W 024°30'611.8
2017-Sep-11 06:30N 37°29' W 024°38'612.2
2017-Sep-11 06:00N 37°29' W 024°45'611.7
2017-Sep-11 05:30N 37°30' W 024°52'611.5
2017-Sep-11 05:01N 37°29' W 024°60'611.8
2017-Sep-11 04:30N 37°29' W 025°07'611.8
2017-Sep-11 04:01N 37°28' W 025°14'611.1
2017-Sep-11 03:30N 37°26' W 025°21'611.7
2017-Sep-11 03:01N 37°26' W 025°28'612.1
2017-Sep-11 02:30N 37°26' W 025°36'612.0
2017-Sep-11 02:01N 37°25' W 025°43'611.9
2017-Sep-11 01:31N 37°24' W 025°51'611.8
2017-Sep-11 01:00N 37°24' W 025°58'611.6
2017-Sep-11 00:30N 37°23' W 026°06'611.7
2017-Sep-11 00:00N 37°22' W 026°13'611.0
2017-Sep-10 23:30N 37°21' W 026°20'510.9
2017-Sep-10 23:00N 37°21' W 026°27'611.0
2017-Sep-10 22:30N 37°20' W 026°33'611.7
2017-Sep-10 22:00N 37°19' W 026°41'611.8
2017-Sep-10 21:30N 37°19' W 026°48'611.5
2017-Sep-10 21:00N 37°18' W 026°55'511.0
2017-Sep-10 20:31N 37°17' W 027°02'611.4
2017-Sep-10 20:00N 37°16' W 027°09'1422.0
2017-Sep-10 19:23N 37°15' W 027°26'15 8.3
2017-Sep-10 17:31N 37°13' W 027°46'017.7
2017-Sep-10 17:30N 37°13' W 027°46'1012.7
2017-Sep-10 16:45N 37°12' W 027°58'313.2
2017-Sep-10 16:30N 37°11' W 028°02'712.5
2017-Sep-10 15:57N 37°11' W 028°10'1511.7
2017-Sep-10 14:41N 37°09' W 028°29'812.0
2017-Sep-10 14:00N 37°08' W 028°39'611.7
2017-Sep-10 13:30N 37°07' W 028°46'611.8
2017-Sep-10 13:01N 37°07' W 028°53'611.7
2017-Sep-10 12:30N 37°06' W 029°01'611.6
2017-Sep-10 12:00N 37°05' W 029°08'611.6
2017-Sep-10 11:30N 37°04' W 029°15'911.4
2017-Sep-10 10:44N 37°03' W 029°26'1111.7
2017-Sep-10 09:46N 37°02' W 029°40'311.4
2017-Sep-10 09:29N 37°02' W 029°44'1411.7
2017-Sep-10 08:15N 36°60' W 030°02'2311.8
2017-Sep-10 06:17N 36°56' W 030°31'  

Dump ship's entire track history